sensor_id;sensor_type;location;lat;lon;timestamp;P1;durP1;ratioP1;P2;durP2;ratioP2
20751;SDS011;10536;51.582;5.016;2022-10-04T00:05:33;21.48;;;11.02;;
20751;SDS011;10536;51.582;5.016;2022-10-04T00:10:35;22.77;;;10.88;;
20751;SDS011;10536;51.582;5.016;2022-10-04T00:15:36;17.75;;;10.95;;
20751;SDS011;10536;51.582;5.016;2022-10-04T00:41:23;24.23;;;12.60;;
20751;SDS011;10536;51.582;5.016;2022-10-04T00:46:24;21.05;;;12.82;;
20751;SDS011;10536;51.582;5.016;2022-10-04T00:51:37;18.50;;;12.95;;
20751;SDS011;10536;51.582;5.016;2022-10-04T00:56:48;28.17;;;13.48;;
20751;SDS011;10536;51.582;5.016;2022-10-04T01:01:53;30.63;;;14.25;;
20751;SDS011;10536;51.582;5.016;2022-10-04T01:06:58;22.40;;;13.32;;
20751;SDS011;10536;51.582;5.016;2022-10-04T01:17:36;22.40;;;13.73;;
20751;SDS011;10536;51.582;5.016;2022-10-04T01:22:41;30.35;;;14.85;;
20751;SDS011;10536;51.582;5.016;2022-10-04T01:27:43;31.35;;;15.43;;
20751;SDS011;10536;51.582;5.016;2022-10-04T01:32:44;27.40;;;14.98;;
20751;SDS011;10536;51.582;5.016;2022-10-04T01:37:44;22.90;;;13.77;;
20751;SDS011;10536;51.582;5.016;2022-10-04T01:42:46;31.45;;;14.88;;
20751;SDS011;10536;51.582;5.016;2022-10-04T01:47:52;21.63;;;14.45;;
20751;SDS011;10536;51.582;5.016;2022-10-04T01:53:12;23.88;;;13.60;;
20751;SDS011;10536;51.582;5.016;2022-10-04T01:58:24;27.23;;;14.68;;
20751;SDS011;10536;51.582;5.016;2022-10-04T02:03:36;20.45;;;12.68;;
20751;SDS011;10536;51.582;5.016;2022-10-04T02:08:46;19.05;;;13.35;;
20751;SDS011;10536;51.582;5.016;2022-10-04T02:13:50;21.15;;;13.80;;
20751;SDS011;10536;51.582;5.016;2022-10-04T02:18:53;22.17;;;15.20;;
20751;SDS011;10536;51.582;5.016;2022-10-04T02:23:54;25.23;;;15.02;;
20751;SDS011;10536;51.582;5.016;2022-10-04T02:28:56;22.20;;;13.30;;
20751;SDS011;10536;51.582;5.016;2022-10-04T02:33:56;23.60;;;14.45;;
20751;SDS011;10536;51.582;5.016;2022-10-04T02:39:02;26.42;;;15.13;;
20751;SDS011;10536;51.582;5.016;2022-10-04T02:44:10;27.50;;;16.25;;
20751;SDS011;10536;51.582;5.016;2022-10-04T02:49:31;18.88;;;14.20;;
20751;SDS011;10536;51.582;5.016;2022-10-04T02:54:39;27.85;;;16.52;;
20751;SDS011;10536;51.582;5.016;2022-10-04T02:59:42;31.15;;;15.90;;
20751;SDS011;10536;51.582;5.016;2022-10-04T03:04:42;26.67;;;15.55;;
20751;SDS011;10536;51.582;5.016;2022-10-04T03:09:43;22.02;;;14.55;;
20751;SDS011;10536;51.582;5.016;2022-10-04T03:14:44;21.98;;;15.02;;
20751;SDS011;10536;51.582;5.016;2022-10-04T03:19:46;27.25;;;16.70;;
20751;SDS011;10536;51.582;5.016;2022-10-04T03:24:49;29.52;;;17.73;;
20751;SDS011;10536;51.582;5.016;2022-10-04T03:29:52;28.60;;;16.90;;
20751;SDS011;10536;51.582;5.016;2022-10-04T03:34:58;41.47;;;23.20;;
20751;SDS011;10536;51.582;5.016;2022-10-04T03:40:02;34.08;;;18.90;;
20751;SDS011;10536;51.582;5.016;2022-10-04T03:45:10;30.90;;;16.58;;
20751;SDS011;10536;51.582;5.016;2022-10-04T03:50:15;34.50;;;18.90;;
20751;SDS011;10536;51.582;5.016;2022-10-04T03:55:20;36.40;;;20.00;;
20751;SDS011;10536;51.582;5.016;2022-10-04T04:00:25;31.90;;;18.42;;
20751;SDS011;10536;51.582;5.016;2022-10-04T04:05:30;27.30;;;17.13;;
20751;SDS011;10536;51.582;5.016;2022-10-04T04:10:36;32.50;;;19.25;;
20751;SDS011;10536;51.582;5.016;2022-10-04T04:15:40;32.22;;;19.85;;
20751;SDS011;10536;51.582;5.016;2022-10-04T04:20:44;33.08;;;18.65;;
20751;SDS011;10536;51.582;5.016;2022-10-04T04:25:46;29.83;;;18.95;;
20751;SDS011;10536;51.582;5.016;2022-10-04T04:30:51;34.00;;;19.98;;
20751;SDS011;10536;51.582;5.016;2022-10-04T04:36:04;40.05;;;21.23;;
20751;SDS011;10536;51.582;5.016;2022-10-04T04:41:06;35.00;;;19.75;;
20751;SDS011;10536;51.582;5.016;2022-10-04T04:46:09;38.58;;;20.25;;
20751;SDS011;10536;51.582;5.016;2022-10-04T04:51:13;31.67;;;19.98;;
20751;SDS011;10536;51.582;5.016;2022-10-04T04:56:21;32.28;;;19.05;;
20751;SDS011;10536;51.582;5.016;2022-10-04T05:06:25;31.08;;;18.05;;
20751;SDS011;10536;51.582;5.016;2022-10-04T05:11:32;37.65;;;20.02;;
20751;SDS011;10536;51.582;5.016;2022-10-04T05:16:48;33.88;;;20.52;;
20751;SDS011;10536;51.582;5.016;2022-10-04T05:21:51;36.15;;;20.42;;
20751;SDS011;10536;51.582;5.016;2022-10-04T05:26:56;33.45;;;20.00;;
20751;SDS011;10536;51.582;5.016;2022-10-04T05:42:53;35.42;;;20.50;;
20751;SDS011;10536;51.582;5.016;2022-10-04T05:47:57;33.13;;;20.80;;
20751;SDS011;10536;51.582;5.016;2022-10-04T05:58:47;45.45;;;22.77;;
20751;SDS011;10536;51.582;5.016;2022-10-04T06:04:15;37.08;;;21.35;;
20751;SDS011;10536;51.582;5.016;2022-10-04T06:14:57;36.95;;;21.42;;
20751;SDS011;10536;51.582;5.016;2022-10-04T06:25:39;33.22;;;18.65;;
20751;SDS011;10536;51.582;5.016;2022-10-04T06:46:32;24.38;;;17.33;;
20751;SDS011;10536;51.582;5.016;2022-10-04T06:51:49;37.17;;;17.92;;
20751;SDS011;10536;51.582;5.016;2022-10-04T07:07:47;31.27;;;17.33;;
20751;SDS011;10536;51.582;5.016;2022-10-04T07:13:09;34.13;;;17.58;;
20751;SDS011;10536;51.582;5.016;2022-10-04T07:18:19;29.58;;;17.98;;
20751;SDS011;10536;51.582;5.016;2022-10-04T07:23:26;31.90;;;17.13;;
20751;SDS011;10536;51.582;5.016;2022-10-04T07:28:38;32.17;;;18.83;;
20751;SDS011;10536;51.582;5.016;2022-10-04T07:34:00;27.98;;;17.83;;
20751;SDS011;10536;51.582;5.016;2022-10-04T07:39:13;32.65;;;17.85;;
20751;SDS011;10536;51.582;5.016;2022-10-04T07:44:22;31.63;;;17.40;;
20751;SDS011;10536;51.582;5.016;2022-10-04T08:00:23;25.08;;;15.15;;
20751;SDS011;10536;51.582;5.016;2022-10-04T08:05:53;22.65;;;13.23;;
20751;SDS011;10536;51.582;5.016;2022-10-04T08:21:38;26.92;;;14.07;;
20751;SDS011;10536;51.582;5.016;2022-10-04T08:32:30;20.58;;;12.48;;
20751;SDS011;10536;51.582;5.016;2022-10-04T08:43:29;21.92;;;12.35;;
20751;SDS011;10536;51.582;5.016;2022-10-04T08:48:55;18.17;;;10.88;;
20751;SDS011;10536;51.582;5.016;2022-10-04T09:16:01;19.63;;;9.90;;
20751;SDS011;10536;51.582;5.016;2022-10-04T09:21:09;14.95;;;9.32;;
20751;SDS011;10536;51.582;5.016;2022-10-04T09:26:22;17.92;;;9.50;;
20751;SDS011;10536;51.582;5.016;2022-10-04T09:47:30;14.48;;;8.60;;
20751;SDS011;10536;51.582;5.016;2022-10-04T10:08:52;13.15;;;7.65;;
20751;SDS011;10536;51.582;5.016;2022-10-04T10:41:36;17.17;;;6.47;;
20751;SDS011;10536;51.582;5.016;2022-10-04T11:40:07;8.10;;;6.30;;
20751;SDS011;10536;51.582;5.016;2022-10-04T12:11:41;12.35;;;5.47;;
20751;SDS011;10536;51.582;5.016;2022-10-04T12:28:18;6.25;;;3.70;;
20751;SDS011;10536;51.582;5.016;2022-10-04T12:33:35;8.02;;;4.43;;
20751;SDS011;10536;51.582;5.016;2022-10-04T12:49:47;6.20;;;4.32;;
20751;SDS011;10536;51.582;5.016;2022-10-04T13:00:12;9.38;;;4.05;;
20751;SDS011;10536;51.582;5.016;2022-10-04T13:16:03;12.13;;;4.60;;
20751;SDS011;10536;51.582;5.016;2022-10-04T13:21:15;9.63;;;4.13;;
20751;SDS011;10536;51.582;5.016;2022-10-04T13:26:29;10.82;;;4.60;;
20751;SDS011;10536;51.582;5.016;2022-10-04T13:59:04;7.70;;;4.40;;
20751;SDS011;10536;51.582;5.016;2022-10-04T14:31:11;4.30;;;3.15;;
20751;SDS011;10536;51.582;5.016;2022-10-04T15:04:30;11.05;;;3.47;;
20751;SDS011;10536;51.582;5.016;2022-10-04T15:20:27;7.43;;;3.22;;
20751;SDS011;10536;51.582;5.016;2022-10-04T15:30:53;7.82;;;3.75;;
20751;SDS011;10536;51.582;5.016;2022-10-04T15:42:33;4.15;;;3.47;;
20751;SDS011;10536;51.582;5.016;2022-10-04T15:47:48;7.45;;;4.20;;
20751;SDS011;10536;51.582;5.016;2022-10-04T15:53:21;9.50;;;4.38;;
20751;SDS011;10536;51.582;5.016;2022-10-04T16:35:40;10.00;;;3.78;;
20751;SDS011;10536;51.582;5.016;2022-10-04T16:56:21;4.90;;;3.60;;
20751;SDS011;10536;51.582;5.016;2022-10-04T17:12:18;5.80;;;3.63;;
20751;SDS011;10536;51.582;5.016;2022-10-04T17:28:15;8.68;;;4.57;;
20751;SDS011;10536;51.582;5.016;2022-10-04T17:38:42;8.85;;;5.00;;
20751;SDS011;10536;51.582;5.016;2022-10-04T17:54:53;8.40;;;6.45;;
20751;SDS011;10536;51.582;5.016;2022-10-04T18:00:16;8.25;;;5.53;;
20751;SDS011;10536;51.582;5.016;2022-10-04T18:21:27;9.40;;;6.00;;
20751;SDS011;10536;51.582;5.016;2022-10-04T18:26:33;7.15;;;6.07;;
20751;SDS011;10536;51.582;5.016;2022-10-04T18:31:35;8.18;;;6.15;;
20751;SDS011;10536;51.582;5.016;2022-10-04T18:36:46;13.07;;;7.05;;
20751;SDS011;10536;51.582;5.016;2022-10-04T18:42:28;11.40;;;7.75;;
20751;SDS011;10536;51.582;5.016;2022-10-04T18:47:33;14.05;;;8.07;;
20751;SDS011;10536;51.582;5.016;2022-10-04T18:52:41;7.70;;;7.00;;
20751;SDS011;10536;51.582;5.016;2022-10-04T18:57:56;14.18;;;7.80;;
20751;SDS011;10536;51.582;5.016;2022-10-04T19:03:43;15.95;;;8.25;;
20751;SDS011;10536;51.582;5.016;2022-10-04T19:19:39;14.48;;;8.70;;
20751;SDS011;10536;51.582;5.016;2022-10-04T19:30:24;19.33;;;8.88;;
20751;SDS011;10536;51.582;5.016;2022-10-04T19:40:46;10.35;;;8.32;;
20751;SDS011;10536;51.582;5.016;2022-10-04T19:51:33;16.70;;;8.93;;
20751;SDS011;10536;51.582;5.016;2022-10-04T19:56:45;8.75;;;7.57;;
20751;SDS011;10536;51.582;5.016;2022-10-04T20:01:47;11.93;;;8.35;;
20751;SDS011;10536;51.582;5.016;2022-10-04T20:06:53;14.30;;;9.32;;
20751;SDS011;10536;51.582;5.016;2022-10-04T20:11:57;11.43;;;8.02;;
20751;SDS011;10536;51.582;5.016;2022-10-04T20:27:58;10.52;;;8.30;;
20751;SDS011;10536;51.582;5.016;2022-10-04T20:48:16;13.68;;;9.80;;
20751;SDS011;10536;51.582;5.016;2022-10-04T20:58:24;14.15;;;8.55;;
20751;SDS011;10536;51.582;5.016;2022-10-04T21:03:28;9.27;;;7.60;;
20751;SDS011;10536;51.582;5.016;2022-10-04T21:08:29;16.75;;;8.73;;
20751;SDS011;10536;51.582;5.016;2022-10-04T21:13:40;17.92;;;8.75;;
20751;SDS011;10536;51.582;5.016;2022-10-04T21:18:47;15.48;;;9.13;;
20751;SDS011;10536;51.582;5.016;2022-10-04T21:23:48;13.73;;;8.15;;
20751;SDS011;10536;51.582;5.016;2022-10-04T21:28:52;15.18;;;8.40;;
20751;SDS011;10536;51.582;5.016;2022-10-04T21:33:56;10.75;;;7.78;;
20751;SDS011;10536;51.582;5.016;2022-10-04T21:38:56;9.93;;;7.33;;
20751;SDS011;10536;51.582;5.016;2022-10-04T21:43:56;13.13;;;7.37;;
20751;SDS011;10536;51.582;5.016;2022-10-04T21:48:57;8.25;;;6.95;;
20751;SDS011;10536;51.582;5.016;2022-10-04T21:53:58;10.95;;;7.68;;
20751;SDS011;10536;51.582;5.016;2022-10-04T21:58:58;12.38;;;8.32;;
20751;SDS011;10536;51.582;5.016;2022-10-04T22:03:58;9.67;;;7.70;;
20751;SDS011;10536;51.582;5.016;2022-10-04T22:08:59;9.63;;;7.45;;
20751;SDS011;10536;51.582;5.016;2022-10-04T22:13:59;13.43;;;7.50;;
20751;SDS011;10536;51.582;5.016;2022-10-04T22:19:00;8.65;;;7.20;;
20751;SDS011;10536;51.582;5.016;2022-10-04T22:24:01;9.30;;;7.07;;
20751;SDS011;10536;51.582;5.016;2022-10-04T22:29:08;8.05;;;6.95;;
20751;SDS011;10536;51.582;5.016;2022-10-04T22:34:16;10.10;;;7.13;;
20751;SDS011;10536;51.582;5.016;2022-10-04T22:39:18;9.05;;;6.80;;
20751;SDS011;10536;51.582;5.016;2022-10-04T22:44:21;8.75;;;6.97;;
20751;SDS011;10536;51.582;5.016;2022-10-04T22:49:24;12.05;;;7.60;;
20751;SDS011;10536;51.582;5.016;2022-10-04T22:54:34;9.63;;;7.15;;
20751;SDS011;10536;51.582;5.016;2022-10-04T22:59:37;11.27;;;7.30;;
20751;SDS011;10536;51.582;5.016;2022-10-04T23:04:45;9.90;;;7.18;;
20751;SDS011;10536;51.582;5.016;2022-10-04T23:09:50;10.95;;;7.20;;
20751;SDS011;10536;51.582;5.016;2022-10-04T23:14:51;10.52;;;7.63;;
20751;SDS011;10536;51.582;5.016;2022-10-04T23:19:51;11.02;;;7.72;;
20751;SDS011;10536;51.582;5.016;2022-10-04T23:24:55;14.68;;;8.60;;
20751;SDS011;10536;51.582;5.016;2022-10-04T23:29:57;9.98;;;7.43;;
20751;SDS011;10536;51.582;5.016;2022-10-04T23:35:02;10.75;;;8.07;;
20751;SDS011;10536;51.582;5.016;2022-10-04T23:40:04;11.88;;;8.27;;
20751;SDS011;10536;51.582;5.016;2022-10-04T23:45:10;15.98;;;8.73;;
20751;SDS011;10536;51.582;5.016;2022-10-04T23:50:30;12.30;;;7.75;;
20751;SDS011;10536;51.582;5.016;2022-10-04T23:55:37;12.68;;;8.35;;
